EGHH/BOH METAR and TAF weather

Enter ICAO airport designator
Station Type Date Time Source
EGHH METAR 2018/04/23 11:20 UTC NOAA

EGHH 231120Z 24010KT 9999 FEW026 BKN031 14/08 Q1018


Station Type Date Time Source
EGHH Decoded METAR 2018/04/23 11:20 UTC NOAA

Bournemouth Airport, United Kingdom (EGHH) 50-47N 001-50W 0M
Apr 23, 2018 - 07:20 AM EDT / 2018.04.23 1120 UTC
Wind: from the WSW (240 degrees) at 12 MPH (10 KT):0
Visibility: greater than 7 mile(s):0
Sky conditions: mostly cloudy
Temperature: 57 F (14 C)
Dew Point: 46 F (8 C)
Relative Humidity: 67%
Pressure (altimeter): 30.06 in. Hg (1018 hPa)
ob: EGHH 231120Z 24010KT 9999 FEW026 BKN031 14/08 Q1018
cycle: 11

Station Type Date Time Source
EGHH TAF 2013/12/01 21:21 UTC NOAA

TAF TAF EGHH 010016Z 3021/0106 CNL


Example: see airport list